Time;durP1;ratioP1;P1;durP2;ratioP2;P2;SDS_P1;SDS_P2;PMS_P1;PMS_P2;Temp;Humidity;BMP_temperature;BMP_pressure;BME280_temperature;BME280_humidity;BME280_pressure;Samples;Min_cycle;Max_cycle;Signal;HPM_P1;HPM_P2
2021/01/21 00:09:10;;;;;;;4.60;3.20;;;8.40;98.30;;;;;;4839097;24;20428;-82
2021/01/21 01:01:46;;;;;;;5.53;3.77;;;8.60;98.30;;;;;;4893464;24;20463;-82
2021/01/21 01:09:18;;;;;;;4.67;3.70;;;8.60;98.30;;;;;;5023593;23;20466;-81
2021/01/21 01:15:45;;;;;;;4.27;3.37;;;8.60;98.30;;;;;;4921702;24;20953;-81
2021/01/21 01:17:47;;;;;;;6.47;2.97;;;8.60;98.30;;;;;;4932033;24;20489;-80
2021/01/21 01:19:49;;;;;;;11.73;3.90;;;8.60;98.30;;;;;;4931363;24;21156;-81
2021/01/21 01:21:54;;;;;;;6.17;4.17;;;8.60;98.30;;;;;;4923584;24;20462;-81
2021/01/21 01:23:56;;;;;;;7.53;3.70;;;8.60;98.30;;;;;;4931261;24;20461;-80
2021/01/21 01:25:59;;;;;;;6.37;3.80;;;8.60;98.30;;;;;;4929511;24;20493;-80
2021/01/21 01:28:02;;;;;;;3.50;3.20;;;8.60;98.30;;;;;;4929428;24;20461;-80
2021/01/21 01:30:05;;;;;;;8.20;3.60;;;8.70;98.30;;;;;;4982445;23;20942;-80
2021/01/21 01:32:08;;;;;;;3.60;3.10;;;8.60;98.30;;;;;;5000229;23;21014;-80
2021/01/21 01:34:10;;;;;;;8.83;3.20;;;8.60;98.30;;;;;;5000499;23;20435;-80
2021/01/21 01:36:12;;;;;;;7.23;4.00;;;8.60;98.30;;;;;;5000032;23;20455;-81
2021/01/21 01:38:14;;;;;;;7.10;4.30;;;8.60;98.30;;;;;;5000206;23;20801;-80
2021/01/21 01:40:17;;;;;;;4.63;3.47;;;8.60;98.30;;;;;;4999625;23;21053;-80
2021/01/21 01:42:19;;;;;;;5.80;3.27;;;8.60;98.30;;;;;;5000267;23;20486;-81
2021/01/21 01:44:21;;;;;;;6.50;3.20;;;8.60;98.30;;;;;;4999946;23;20839;-80
2021/01/21 01:46:27;;;;;;;5.70;3.73;;;8.60;98.30;;;;;;5000171;23;20457;-82
2021/01/21 01:48:30;;;;;;;5.70;3.57;;;8.60;98.30;;;;;;5000136;23;20458;-80
2021/01/21 01:50:35;;;;;;;4.80;3.57;;;8.50;98.30;;;;;;4992019;23;20803;-81
2021/01/21 01:52:41;;;;;;;7.07;3.33;;;8.60;98.30;;;;;;5000497;23;20449;-81
2021/01/21 01:54:44;;;;;;;4.00;3.57;;;8.60;98.30;;;;;;5003981;23;20971;-81
2021/01/21 01:56:47;;;;;;;4.10;3.33;;;8.60;98.30;;;;;;5002138;23;20462;-81
2021/01/21 01:58:52;;;;;;;4.70;3.63;;;8.50;98.30;;;;;;5000254;23;20458;-81
2021/01/21 02:00:55;;;;;;;4.30;3.37;;;8.50;98.30;;;;;;5000519;23;20481;-81
2021/01/21 02:02:57;;;;;;;5.83;3.67;;;8.50;98.30;;;;;;5088993;23;20460;-81
2021/01/21 02:08:07;;;;;;;6.73;3.30;;;8.50;98.30;;;;;;5083403;23;20473;-81
2021/01/21 02:10:12;;;;;;;4.40;3.33;;;8.60;98.30;;;;;;5089978;23;20554;-81
2021/01/21 02:12:43;;;;;;;4.90;3.30;;;8.50;98.30;;;;;;5099057;23;20450;-81
2021/01/21 02:14:55;;;;;;;4.03;3.37;;;8.50;98.30;;;;;;5099774;23;21209;-81
2021/01/21 02:17:02;;;;;;;3.87;3.13;;;8.60;98.30;;;;;;5099704;23;20447;-80
2021/01/21 02:19:48;;;;;;;5.47;3.13;;;8.60;98.30;;;;;;5090412;23;20462;-81
2021/01/21 02:22:26;;;;;;;3.40;2.67;;;8.50;98.30;;;;;;5099803;23;20531;-81
2021/01/21 02:25:01;;;;;;;4.20;3.50;;;8.40;98.30;;;;;;5063020;23;20454;-81
2021/01/21 02:27:06;;;;;;;5.10;3.23;;;8.50;98.30;;;;;;5091483;23;20541;-81
2021/01/21 02:29:17;;;;;;;3.53;2.90;;;8.40;98.30;;;;;;5099781;23;20529;-81
2021/01/21 02:31:40;;;;;;;5.30;3.23;;;8.40;98.30;;;;;;5091646;23;20451;-81
2021/01/21 02:33:54;;;;;;;5.63;3.30;;;8.30;98.30;;;;;;5091777;23;20454;-80
2021/01/21 02:36:02;;;;;;;8.70;3.77;;;8.30;98.30;;;;;;5099486;23;20442;-80
2021/01/21 02:38:07;;;;;;;4.80;3.27;;;8.30;98.30;;;;;;5099613;23;20770;-81
2021/01/21 02:40:11;;;;;;;3.93;3.20;;;8.30;98.30;;;;;;5100003;23;21306;-82
2021/01/21 02:42:13;;;;;;;6.73;3.53;;;8.20;98.30;;;;;;5093019;23;20785;-81
2021/01/21 02:44:15;;;;;;;8.63;3.63;;;8.20;98.30;;;;;;5101403;23;20462;-81
2021/01/21 02:46:18;;;;;;;5.50;2.90;;;8.20;98.30;;;;;;5101461;23;21083;-80
2021/01/21 02:48:22;;;;;;;6.30;3.07;;;8.20;98.30;;;;;;5101324;23;20442;-81
2021/01/21 02:50:25;;;;;;;4.17;3.37;;;8.20;98.30;;;;;;5093459;23;20486;-81
2021/01/21 02:52:36;;;;;;;3.60;3.30;;;8.20;98.30;;;;;;5092764;23;20454;-80
2021/01/21 02:54:54;;;;;;;5.50;3.37;;;8.20;98.30;;;;;;5093341;23;20454;-80
2021/01/21 02:57:05;;;;;;;4.00;3.50;;;8.10;98.30;;;;;;5100766;23;20779;-81
2021/01/21 02:59:13;;;;;;;4.63;3.20;;;8.20;98.30;;;;;;5100395;23;20494;-80
2021/01/21 03:01:17;;;;;;;4.30;3.13;;;8.10;98.30;;;;;;5100699;23;20953;-80
2021/01/21 03:03:23;;;;;;;4.13;3.67;;;8.20;98.30;;;;;;5101159;23;20453;-81
2021/01/21 03:05:27;;;;;;;6.83;3.30;;;8.20;98.30;;;;;;5100892;23;20455;-80
2021/01/21 03:07:30;;;;;;;2.93;2.67;;;8.20;98.30;;;;;;5092184;23;20479;-80
2021/01/21 03:09:32;;;;;;;4.47;3.37;;;8.20;98.30;;;;;;5100684;23;20537;-80
2021/01/21 03:11:35;;;;;;;8.97;3.70;;;8.20;98.30;;;;;;5100800;23;21189;-81
2021/01/21 03:13:39;;;;;;;3.67;3.17;;;8.20;98.30;;;;;;5100373;23;20816;-81
2021/01/21 03:15:41;;;;;;;4.37;3.30;;;8.20;98.30;;;;;;5101004;23;20961;-81
2021/01/21 03:17:43;;;;;;;5.30;3.20;;;8.20;98.30;;;;;;5100867;23;20429;-81
2021/01/21 03:19:45;;;;;;;3.50;3.20;;;8.10;98.30;;;;;;5101287;23;20448;-81
2021/01/21 03:21:53;;;;;;;5.43;3.50;;;8.20;98.30;;;;;;5099698;23;20474;-81
2021/01/21 03:23:55;;;;;;;3.97;3.10;;;8.20;98.30;;;;;;5100230;23;20465;-82
2021/01/21 03:25:57;;;;;;;3.43;2.80;;;8.20;98.30;;;;;;5101137;23;20427;-81
2021/01/21 03:27:59;;;;;;;4.80;3.00;;;8.30;98.30;;;;;;5100408;23;20455;-80
2021/01/21 03:30:01;;;;;;;4.10;3.30;;;8.20;98.30;;;;;;5100397;23;20504;-80
2021/01/21 03:32:04;;;;;;;4.87;3.60;;;8.20;98.30;;;;;;5101183;23;20445;-81
2021/01/21 03:34:06;;;;;;;7.33;3.20;;;8.30;98.30;;;;;;5093057;23;20509;-81
2021/01/21 03:36:08;;;;;;;6.53;3.40;;;8.30;98.30;;;;;;5092196;23;20458;-81
2021/01/21 03:38:11;;;;;;;4.30;3.27;;;8.30;98.30;;;;;;5092814;23;20454;-80
2021/01/21 03:40:14;;;;;;;7.47;3.30;;;8.30;98.30;;;;;;5100435;23;20443;-81
2021/01/21 03:42:16;;;;;;;9.03;4.00;;;8.30;98.30;;;;;;5100635;23;20958;-81
2021/01/21 03:44:19;;;;;;;4.37;3.20;;;8.40;98.30;;;;;;5100772;23;20485;-80
2021/01/21 03:46:21;;;;;;;3.90;3.30;;;8.30;98.30;;;;;;5100863;23;20501;-80
2021/01/21 03:48:24;;;;;;;6.20;3.13;;;8.30;98.30;;;;;;5100807;23;21004;-80
2021/01/21 03:50:26;;;;;;;4.10;3.30;;;8.40;98.30;;;;;;5103317;23;20525;-80
2021/01/21 03:52:28;;;;;;;4.10;3.30;;;8.40;98.30;;;;;;5102204;23;20460;-81
2021/01/21 03:54:31;;;;;;;3.47;2.67;;;8.40;98.30;;;;;;5095774;23;20457;-82
2021/01/21 03:56:35;;;;;;;5.73;3.10;;;8.40;98.30;;;;;;5103366;23;20441;-81
2021/01/21 03:58:37;;;;;;;4.33;3.37;;;8.40;98.30;;;;;;5112077;23;20486;-80
2021/01/21 04:00:40;;;;;;;5.10;3.60;;;8.30;98.30;;;;;;5102563;23;20474;-80
2021/01/21 04:02:42;;;;;;;8.17;3.10;;;8.40;98.30;;;;;;5111061;23;20443;-80
2021/01/21 04:04:45;;;;;;;3.70;2.87;;;8.40;98.30;;;;;;5105756;23;20454;-81
2021/01/21 04:06:49;;;;;;;3.80;3.40;;;8.40;98.30;;;;;;5100899;23;21158;-81
2021/01/21 04:08:52;;;;;;;3.87;3.20;;;8.40;98.30;;;;;;5100905;23;20549;-81
2021/01/21 04:10:55;;;;;;;6.97;3.50;;;8.40;98.30;;;;;;5101581;23;20520;-81
2021/01/21 04:12:57;;;;;;;3.80;3.30;;;8.40;98.30;;;;;;5101238;23;20451;-81
2021/01/21 04:14:59;;;;;;;5.00;3.07;;;8.40;98.30;;;;;;5101013;23;20531;-81
2021/01/21 04:17:02;;;;;;;4.03;3.20;;;8.40;98.30;;;;;;5100798;23;20453;-81
2021/01/21 04:19:04;;;;;;;8.43;3.10;;;8.40;98.30;;;;;;5101341;23;20813;-81
2021/01/21 04:21:07;;;;;;;3.70;3.10;;;8.40;98.30;;;;;;5100129;23;20485;-80
2021/01/21 04:23:10;;;;;;;3.77;2.73;;;8.40;98.30;;;;;;5099955;23;20507;-80
2021/01/21 04:25:14;;;;;;;3.70;2.90;;;8.40;98.30;;;;;;5099325;23;20451;-80
2021/01/21 04:27:17;;;;;;;4.80;2.90;;;8.40;98.30;;;;;;5099107;23;20450;-80
2021/01/21 04:29:19;;;;;;;6.30;3.13;;;8.40;98.30;;;;;;5098450;23;20506;-80
2021/01/21 04:31:21;;;;;;;3.97;3.43;;;8.40;98.30;;;;;;5099016;23;20450;-82
2021/01/21 04:33:24;;;;;;;4.13;2.93;;;8.40;98.30;;;;;;5100601;23;20905;-81
2021/01/21 04:35:27;;;;;;;4.20;2.87;;;8.40;98.30;;;;;;5100951;23;20502;-81
2021/01/21 04:37:29;;;;;;;4.73;3.20;;;8.40;98.30;;;;;;5092646;23;20454;-80
2021/01/21 04:39:33;;;;;;;5.17;2.90;;;8.40;98.30;;;;;;5092708;23;20492;-80
2021/01/21 04:41:35;;;;;;;4.10;3.20;;;8.40;98.30;;;;;;5093280;23;20941;-81
2021/01/21 04:43:38;;;;;;;4.83;3.43;;;8.40;98.30;;;;;;5101686;23;20948;-80
2021/01/21 04:45:40;;;;;;;6.57;3.20;;;8.40;98.30;;;;;;5092419;23;20518;-80
2021/01/21 04:47:43;;;;;;;5.50;3.30;;;8.30;98.30;;;;;;5092545;23;20482;-80
2021/01/21 04:49:46;;;;;;;5.50;3.10;;;8.30;98.30;;;;;;5100765;23;20836;-81
2021/01/21 04:51:51;;;;;;;5.43;3.00;;;8.30;98.30;;;;;;5100901;23;20446;-80
2021/01/21 04:54:02;;;;;;;6.20;3.00;;;8.30;98.30;;;;;;5100744;23;20455;-80
2021/01/21 04:56:06;;;;;;;5.20;4.23;;;8.30;98.30;;;;;;5101149;23;20453;-80
2021/01/21 04:58:16;;;;;;;3.10;2.80;;;8.30;98.30;;;;;;5100821;23;20461;-80
2021/01/21 05:00:22;;;;;;;3.70;2.93;;;8.30;98.30;;;;;;5100367;23;20534;-81
